Time;durP1;ratioP1;P1;durP2;ratioP2;P2;SDS_P1;SDS_P2;PMS_P1;PMS_P2;Temp;Humidity;BMP_temperature;BMP_pressure;BME280_temperature;BME280_humidity;BME280_pressure;Samples;Min_cycle;Max_cycle;Signal;HPM_P1;HPM_P2
2022/06/26 00:02:02;;;;;;;15.10;13.68;;;;;;;;;;5063349;28;20128;-63
2022/06/26 00:04:28;;;;;;;17.73;14.05;;;;;;;;;;5079549;28;20129;-63
2022/06/26 00:06:55;;;;;;;20.73;14.23;;;;;;;;;;5079423;28;20416;-63
2022/06/26 00:09:21;;;;;;;21.20;15.63;;;;;;;;;;5064048;28;20079;-64
2022/06/26 00:11:47;;;;;;;18.95;16.70;;;;;;;;;;5074295;28;20101;-64
2022/06/26 00:14:14;;;;;;;20.38;17.27;;;;;;;;;;5085461;28;20056;-64
2022/06/26 00:16:40;;;;;;;21.83;16.42;;;;;;;;;;5063237;28;20059;-64
2022/06/26 00:19:06;;;;;;;20.67;18.52;;;;;;;;;;5079414;28;20041;-64
2022/06/26 00:21:32;;;;;;;19.48;17.15;;;;;;;;;;5080247;28;20049;-64
2022/06/26 00:23:58;;;;;;;20.30;17.88;;;;;;;;;;5068001;28;20045;-64
2022/06/26 00:26:24;;;;;;;20.38;17.67;;;;;;;;;;5083027;28;20053;-64
2022/06/26 00:28:51;;;;;;;18.60;16.70;;;;;;;;;;5067459;28;20497;-64
2022/06/26 00:31:17;;;;;;;19.30;17.40;;;;;;;;;;5067490;28;20087;-64
2022/06/26 00:33:44;;;;;;;19.60;16.38;;;;;;;;;;5073472;28;20049;-64
2022/06/26 00:36:10;;;;;;;22.67;16.38;;;;;;;;;;5074751;28;20059;-64
2022/06/26 00:38:36;;;;;;;18.67;16.67;;;;;;;;;;5087464;28;20033;-64
2022/06/26 00:41:02;;;;;;;19.63;16.52;;;;;;;;;;5087484;28;20056;-64
2022/06/26 00:43:29;;;;;;;19.65;17.52;;;;;;;;;;5069273;28;20045;-64
2022/06/26 00:45:55;;;;;;;20.30;17.05;;;;;;;;;;5082786;28;20104;-64
2022/06/26 00:48:21;;;;;;;20.80;17.52;;;;;;;;;;5096152;28;20055;-64
2022/06/26 00:50:47;;;;;;;19.67;17.58;;;;;;;;;;5067076;28;20052;-64
2022/06/26 00:53:14;;;;;;;20.73;17.73;;;;;;;;;;5082707;28;20527;-64
2022/06/26 00:55:40;;;;;;;20.77;17.10;;;;;;;;;;5066670;28;20326;-64
2022/06/26 00:58:06;;;;;;;19.10;17.13;;;;;;;;;;5066934;28;20037;-64
2022/06/26 01:00:32;;;;;;;20.40;17.58;;;;;;;;;;5085895;28;20131;-64
2022/06/26 01:02:58;;;;;;;20.08;17.35;;;;;;;;;;5076784;28;20570;-64
2022/06/26 01:05:24;;;;;;;20.88;17.90;;;;;;;;;;5066976;28;20049;-64
2022/06/26 01:07:51;;;;;;;25.35;18.10;;;;;;;;;;5089640;28;20104;-64
2022/06/26 01:10:18;;;;;;;19.58;17.40;;;;;;;;;;5073463;28;20128;-64
2022/06/26 01:12:44;;;;;;;20.23;18.02;;;;;;;;;;5090249;28;20049;-64
2022/06/26 01:15:10;;;;;;;19.83;16.95;;;;;;;;;;5086573;28;20059;-64
2022/06/26 01:17:37;;;;;;;26.65;20.30;;;;;;;;;;5095544;28;20074;-64
2022/06/26 01:20:07;;;;;;;28.10;21.95;;;;;;;;;;5090815;28;20036;-64
2022/06/26 01:22:33;;;;;;;27.88;23.50;;;;;;;;;;5078440;28;20057;-64
2022/06/26 01:24:59;;;;;;;27.58;21.08;;;;;;;;;;5066580;28;20096;-64
2022/06/26 01:27:25;;;;;;;25.25;21.45;;;;;;;;;;5088256;28;20050;-64
2022/06/26 01:29:51;;;;;;;30.20;21.10;;;;;;;;;;5086396;28;20599;-64
2022/06/26 01:32:17;;;;;;;28.20;20.85;;;;;;;;;;5086000;28;20033;-64
2022/06/26 01:34:44;;;;;;;34.25;21.65;;;;;;;;;;5076151;28;20037;-64
2022/06/26 01:37:10;;;;;;;24.02;17.52;;;;;;;;;;5081546;28;20108;-64
2022/06/26 01:39:36;;;;;;;24.63;18.65;;;;;;;;;;5066324;28;20128;-64
2022/06/26 01:42:02;;;;;;;24.08;19.23;;;;;;;;;;5066131;28;20044;-64
2022/06/26 01:44:28;;;;;;;26.23;18.58;;;;;;;;;;5066326;28;20125;-64
2022/06/26 01:46:54;;;;;;;22.83;17.75;;;;;;;;;;5077392;28;20052;-64
2022/06/26 01:49:23;;;;;;;24.70;17.33;;;;;;;;;;5068203;28;20036;-64
2022/06/26 01:51:49;;;;;;;20.65;16.38;;;;;;;;;;5074838;28;20048;-64
2022/06/26 01:54:16;;;;;;;21.70;17.05;;;;;;;;;;5069387;28;20114;-64
2022/06/26 01:56:43;;;;;;;18.42;16.33;;;;;;;;;;5074711;28;20415;-64
2022/06/26 01:59:09;;;;;;;19.15;15.93;;;;;;;;;;5070910;28;20127;-64
2022/06/26 02:01:35;;;;;;;21.80;14.15;;;;;;;;;;5065256;28;20045;-64
2022/06/26 02:04:01;;;;;;;18.65;14.95;;;;;;;;;;5065825;28;20504;-64
2022/06/26 02:06:28;;;;;;;18.83;14.35;;;;;;;;;;5065856;28;20049;-64
2022/06/26 02:08:54;;;;;;;17.17;13.45;;;;;;;;;;5081389;28;20067;-64
2022/06/26 02:14:05;;;;;;;16.40;13.43;;;;;;;;;;5065723;28;20104;-64
2022/06/26 02:16:31;;;;;;;15.88;11.50;;;;;;;;;;5064836;28;20045;-64
2022/06/26 02:18:58;;;;;;;17.70;10.73;;;;;;;;;;5065793;28;20214;-64
2022/06/26 02:21:27;;;;;;;13.85;10.85;;;;;;;;;;5079171;28;20056;-64
2022/06/26 02:23:53;;;;;;;14.98;10.60;;;;;;;;;;5065594;28;20072;-64
2022/06/26 02:26:20;;;;;;;15.32;10.82;;;;;;;;;;5065506;28;20099;-64
2022/06/26 02:28:46;;;;;;;13.65;10.45;;;;;;;;;;5079324;28;20037;-64
2022/06/26 02:31:13;;;;;;;14.90;9.75;;;;;;;;;;5065379;28;20053;-64
2022/06/26 02:33:39;;;;;;;18.13;11.90;;;;;;;;;;5068169;28;20043;-64
2022/06/26 02:36:06;;;;;;;24.73;11.98;;;;;;;;;;5075404;28;20508;-66
2022/06/26 02:38:33;;;;;;;18.08;12.63;;;;;;;;;;5065060;28;20500;-66
2022/06/26 02:40:59;;;;;;;20.70;13.13;;;;;;;;;;5070223;28;20036;-66
2022/06/26 02:43:25;;;;;;;19.25;12.13;;;;;;;;;;5069233;28;20056;-67
2022/06/26 02:45:52;;;;;;;24.92;13.13;;;;;;;;;;5065093;28;20069;-67
2022/06/26 02:48:18;;;;;;;27.40;15.00;;;;;;;;;;5076771;28;20107;-65
2022/06/26 02:50:44;;;;;;;20.15;15.70;;;;;;;;;;5066490;28;20045;-65
2022/06/26 02:53:11;;;;;;;20.98;15.15;;;;;;;;;;5075591;28;20048;-65
2022/06/26 02:55:37;;;;;;;23.08;17.75;;;;;;;;;;5068070;28;20059;-66
2022/06/26 02:58:03;;;;;;;24.08;16.63;;;;;;;;;;5064898;28;20056;-64
2022/06/26 03:00:29;;;;;;;22.98;13.90;;;;;;;;;;5065642;28;20055;-64
2022/06/26 03:02:55;;;;;;;19.98;13.32;;;;;;;;;;5077376;28;20102;-64
2022/06/26 03:05:21;;;;;;;21.75;14.57;;;;;;;;;;5064755;28;20102;-64
2022/06/26 03:07:47;;;;;;;15.30;12.10;;;;;;;;;;5069201;28;20051;-64
2022/06/26 03:10:14;;;;;;;15.32;10.40;;;;;;;;;;5073792;28;20053;-63
2022/06/26 03:12:44;;;;;;;16.38;10.63;;;;;;;;;;5082781;28;20045;-63
2022/06/26 03:15:10;;;;;;;14.43;9.48;;;;;;;;;;5073604;28;20098;-63
2022/06/26 03:17:36;;;;;;;12.93;8.90;;;;;;;;;;5063851;28;20084;-62
2022/06/26 03:20:02;;;;;;;12.10;9.23;;;;;;;;;;5072320;28;20037;-62
2022/06/26 03:22:28;;;;;;;14.73;10.25;;;;;;;;;;5074763;28;20120;-62
2022/06/26 03:24:54;;;;;;;15.55;9.43;;;;;;;;;;5064546;28;20055;-62
2022/06/26 03:27:20;;;;;;;21.55;9.65;;;;;;;;;;5064228;28;20036;-63
2022/06/26 03:29:46;;;;;;;11.25;7.95;;;;;;;;;;5079944;28;20056;-63
2022/06/26 03:32:13;;;;;;;9.77;8.35;;;;;;;;;;5106647;28;20045;-63
2022/06/26 03:34:39;;;;;;;9.75;7.68;;;;;;;;;;5064317;28;20131;-63
2022/06/26 03:37:05;;;;;;;8.27;6.53;;;;;;;;;;5064209;28;20043;-64
2022/06/26 03:39:31;;;;;;;10.02;7.85;;;;;;;;;;5080048;28;20044;-62
2022/06/26 03:41:58;;;;;;;10.38;6.68;;;;;;;;;;5064286;28;20133;-63
2022/06/26 03:44:33;;;;;;;9.02;8.10;;;;;;;;;;5064471;28;20071;-63
2022/06/26 03:46:59;;;;;;;9.95;6.72;;;;;;;;;;5079020;28;20087;-63
2022/06/26 03:49:26;;;;;;;7.80;5.63;;;;;;;;;;5064422;28;20098;-63
2022/06/26 03:51:52;;;;;;;8.15;5.65;;;;;;;;;;5064134;28;20072;-63
2022/06/26 03:54:19;;;;;;;7.63;5.53;;;;;;;;;;5093912;28;20053;-63
2022/06/26 03:56:45;;;;;;;8.17;5.60;;;;;;;;;;5067077;28;20053;-63
2022/06/26 03:59:11;;;;;;;11.20;5.75;;;;;;;;;;5068235;28;20485;-63
2022/06/26 04:01:37;;;;;;;9.20;6.00;;;;;;;;;;5067511;28;20048;-63
2022/06/26 04:04:04;;;;;;;11.90;5.68;;;;;;;;;;5085647;28;20114;-63
2022/06/26 04:06:30;;;;;;;12.82;5.80;;;;;;;;;;5088000;28;20048;-63
2022/06/26 04:08:56;;;;;;;6.57;5.57;;;;;;;;;;5073736;28;20041;-63
2022/06/26 04:11:22;;;;;;;7.88;5.10;;;;;;;;;;5068020;28;20637;-63
2022/06/26 04:13:49;;;;;;;5.85;5.22;;;;;;;;;;5067954;28;20084;-65
2022/06/26 04:16:15;;;;;;;6.68;4.60;;;;;;;;;;5067617;28;20114;-63
2022/06/26 04:18:42;;;;;;;5.22;3.92;;;;;;;;;;5067257;28;20036;-63
2022/06/26 04:21:08;;;;;;;6.85;4.60;;;;;;;;;;5080494;28;20037;-63
2022/06/26 04:23:34;;;;;;;9.60;5.15;;;;;;;;;;5068821;28;20045;-63
2022/06/26 04:26:00;;;;;;;5.90;4.25;;;;;;;;;;5083250;28;20075;-63
2022/06/26 04:28:26;;;;;;;5.88;4.50;;;;;;;;;;5081680;28;20131;-63
2022/06/26 04:30:52;;;;;;;9.00;5.00;;;;;;;;;;5083025;28;20076;-63
2022/06/26 04:33:18;;;;;;;7.32;4.57;;;;;;;;;;5080790;28;20114;-63
2022/06/26 04:35:44;;;;;;;5.97;4.47;;;;;;;;;;5083139;28;20049;-63
2022/06/26 04:38:11;;;;;;;7.78;5.05;;;;;;;;;;5082865;28;20086;-63
2022/06/26 04:40:37;;;;;;;5.70;4.65;;;;;;;;;;5081471;28;20037;-63
2022/06/26 04:43:03;;;;;;;11.15;4.95;;;;;;;;;;5067545;28;20068;-63
2022/06/26 04:45:29;;;;;;;8.00;4.82;;;;;;;;;;5067384;28;20060;-63
2022/06/26 04:47:55;;;;;;;6.72;4.57;;;;;;;;;;5082192;28;20624;-63
2022/06/26 04:50:22;;;;;;;5.18;4.07;;;;;;;;;;5067211;28;20051;-63
2022/06/26 04:52:49;;;;;;;7.38;5.30;;;;;;;;;;5067052;28;20120;-63
2022/06/26 04:55:16;;;;;;;6.88;4.85;;;;;;;;;;5066820;28;20053;-63
2022/06/26 04:57:42;;;;;;;6.22;4.75;;;;;;;;;;5067127;28;20056;-63
2022/06/26 05:00:10;;;;;;;8.00;5.68;;;;;;;;;;5067057;28;20076;-63
2022/06/26 05:02:39;;;;;;;6.75;5.50;;;;;;;;;;5081928;28;20127;-62
2022/06/26 05:05:06;;;;;;;7.07;5.63;;;;;;;;;;5077505;28;20041;-62
2022/06/26 05:07:32;;;;;;;6.75;6.03;;;;;;;;;;5071304;28;20052;-62
2022/06/26 05:09:58;;;;;;;6.35;5.47;;;;;;;;;;5078347;28;20037;-62
2022/06/26 05:12:25;;;;;;;7.05;5.85;;;;;;;;;;5068076;28;20081;-62
2022/06/26 05:14:51;;;;;;;11.10;6.40;;;;;;;;;;5066819;28;20051;-63
2022/06/26 05:17:17;;;;;;;9.05;7.00;;;;;;;;;;5091238;28;20123;-63
2022/06/26 05:19:43;;;;;;;9.90;6.20;;;;;;;;;;5069573;28;20047;-63
2022/06/26 05:22:09;;;;;;;7.60;6.03;;;;;;;;;;5095312;28;20045;-62
2022/06/26 05:24:36;;;;;;;7.22;6.00;;;;;;;;;;5082050;28;20056;-63
2022/06/26 05:27:02;;;;;;;8.05;6.38;;;;;;;;;;5080652;28;20063;-63
2022/06/26 05:29:28;;;;;;;6.88;6.13;;;;;;;;;;5066499;28;20040;-63
2022/06/26 05:31:54;;;;;;;9.10;6.18;;;;;;;;;;5065675;28;20044;-63
2022/06/26 05:34:20;;;;;;;6.90;5.70;;;;;;;;;;5066300;28;20056;-62
2022/06/26 05:36:47;;;;;;;13.07;6.85;;;;;;;;;;5081580;28;20057;-63
2022/06/26 05:39:13;;;;;;;9.52;6.95;;;;;;;;;;5089374;28;20045;-63
2022/06/26 05:41:39;;;;;;;12.73;6.57;;;;;;;;;;5088370;28;20044;-62
2022/06/26 05:44:05;;;;;;;6.55;5.93;;;;;;;;;;5080345;28;20377;-63
2022/06/26 05:46:31;;;;;;;9.50;6.50;;;;;;;;;;5081127;28;20131;-63
2022/06/26 05:48:57;;;;;;;9.48;7.20;;;;;;;;;;5095706;28;20051;-63
2022/06/26 05:51:23;;;;;;;7.50;6.75;;;;;;;;;;5066069;28;20045;-63
2022/06/26 05:53:49;;;;;;;9.38;7.32;;;;;;;;;;5065970;28;20045;-63
2022/06/26 05:56:16;;;;;;;10.10;7.40;;;;;;;;;;5066022;28;20084;-63
2022/06/26 05:58:42;;;;;;;9.50;7.82;;;;;;;;;;5081281;28;20079;-63
2022/06/26 06:01:08;;;;;;;10.35;8.60;;;;;;;;;;5068941;28;20083;-63
2022/06/26 06:03:34;;;;;;;11.25;9.07;;;;;;;;;;5073004;28;20115;-63
2022/06/26 06:06:00;;;;;;;12.80;9.52;;;;;;;;;;5065895;28;20068;-63
2022/06/26 06:08:26;;;;;;;11.00;9.65;;;;;;;;;;5075540;28;20843;-63
2022/06/26 06:10:52;;;;;;;10.70;8.98;;;;;;;;;;5068402;28;20053;-63
2022/06/26 06:13:19;;;;;;;13.13;9.30;;;;;;;;;;5081038;28;20041;-63
2022/06/26 06:15:45;;;;;;;12.63;9.50;;;;;;;;;;5065342;28;20468;-63
2022/06/26 06:18:12;;;;;;;12.10;9.77;;;;;;;;;;5064561;28;20117;-63
2022/06/26 06:20:39;;;;;;;12.80;10.63;;;;;;;;;;5074245;28;20048;-63
2022/06/26 06:23:06;;;;;;;13.13;10.85;;;;;;;;;;5070635;28;20056;-63
2022/06/26 06:25:32;;;;;;;12.68;10.95;;;;;;;;;;5065624;28;20075;-64
2022/06/26 06:27:58;;;;;;;16.15;11.38;;;;;;;;;;5065225;28;20515;-63
2022/06/26 06:30:25;;;;;;;11.88;10.65;;;;;;;;;;5070451;28;20044;-63
2022/06/26 06:32:51;;;;;;;15.48;11.10;;;;;;;;;;5072328;28;20045;-63
2022/06/26 06:35:17;;;;;;;13.48;12.10;;;;;;;;;;5083699;28;20104;-63
2022/06/26 06:37:44;;;;;;;14.93;12.25;;;;;;;;;;5091313;28;20087;-63
2022/06/26 06:40:11;;;;;;;15.10;11.07;;;;;;;;;;5065210;28;20041;-63
2022/06/26 06:42:37;;;;;;;13.35;11.52;;;;;;;;;;5065117;28;20079;-63
2022/06/26 06:45:04;;;;;;;13.65;11.82;;;;;;;;;;5065345;28;20049;-63
2022/06/26 06:47:30;;;;;;;14.82;12.52;;;;;;;;;;5064296;28;20041;-63
2022/06/26 06:49:56;;;;;;;15.82;12.38;;;;;;;;;;5065005;28;20033;-63
2022/06/26 06:52:22;;;;;;;15.43;12.90;;;;;;;;;;5074784;28;20103;-63
2022/06/26 06:54:49;;;;;;;15.10;12.90;;;;;;;;;;5064693;28;20060;-63
2022/06/26 06:57:15;;;;;;;16.98;13.68;;;;;;;;;;5064480;28;20049;-63
2022/06/26 06:59:42;;;;;;;16.25;13.05;;;;;;;;;;5080307;28;20045;-63
2022/06/26 07:02:08;;;;;;;16.15;13.75;;;;;;;;;;5064155;28;20077;-63
2022/06/26 07:04:34;;;;;;;14.68;12.55;;;;;;;;;;5086613;28;20273;-63
2022/06/26 07:07:01;;;;;;;15.48;13.40;;;;;;;;;;5084747;28;20504;-62
2022/06/26 07:09:27;;;;;;;17.20;14.75;;;;;;;;;;5066194;28;20085;-62
2022/06/26 07:11:53;;;;;;;16.63;14.75;;;;;;;;;;5064544;28;20044;-62
2022/06/26 07:14:19;;;;;;;15.88;14.07;;;;;;;;;;5078743;28;20044;-62
2022/06/26 07:16:47;;;;;;;17.23;15.52;;;;;;;;;;5063753;28;20079;-62
2022/06/26 07:19:14;;;;;;;16.83;13.73;;;;;;;;;;5078526;28;20100;-62
2022/06/26 07:21:42;;;;;;;16.52;14.93;;;;;;;;;;5078485;28;20468;-63
2022/06/26 07:24:08;;;;;;;16.42;14.65;;;;;;;;;;5064763;28;20439;-62
2022/06/26 07:26:34;;;;;;;17.83;14.80;;;;;;;;;;5064326;28;20041;-62
2022/06/26 07:29:00;;;;;;;18.48;15.48;;;;;;;;;;5064595;28;20096;-62
2022/06/26 07:31:26;;;;;;;16.60;14.90;;;;;;;;;;5063479;28;20500;-62
2022/06/26 07:36:37;;;;;;;16.92;15.23;;;;;;;;;;5064273;28;20059;-63
2022/06/26 07:39:03;;;;;;;17.80;15.82;;;;;;;;;;5064358;28;20044;-62
2022/06/26 07:41:30;;;;;;;18.52;16.55;;;;;;;;;;5076639;28;20048;-63
2022/06/26 07:43:56;;;;;;;19.40;17.35;;;;;;;;;;5065746;28;20047;-63
2022/06/26 07:46:22;;;;;;;20.15;18.00;;;;;;;;;;5064276;28;20041;-63
2022/06/26 07:48:48;;;;;;;19.98;17.88;;;;;;;;;;5063473;28;20045;-62
2022/06/26 07:51:14;;;;;;;22.20;17.35;;;;;;;;;;5064325;28;20124;-62
2022/06/26 07:53:40;;;;;;;20.35;18.30;;;;;;;;;;5064096;28;20045;-63
2022/06/26 07:56:07;;;;;;;21.25;17.15;;;;;;;;;;5064327;28;20049;-63
2022/06/26 07:58:33;;;;;;;22.73;19.25;;;;;;;;;;5064181;28;20405;-63
2022/06/26 08:00:59;;;;;;;21.30;18.95;;;;;;;;;;5064207;28;20048;-63
2022/06/26 08:03:25;;;;;;;20.20;18.10;;;;;;;;;;5073898;28;20100;-63
2022/06/26 08:05:51;;;;;;;20.20;17.92;;;;;;;;;;5067349;28;20076;-63
2022/06/26 08:08:17;;;;;;;19.98;17.65;;;;;;;;;;5063982;28;20049;-63
2022/06/26 08:10:44;;;;;;;22.05;18.13;;;;;;;;;;5078255;28;20048;-63
2022/06/26 08:13:10;;;;;;;15.13;13.35;;;;;;;;;;5063961;28;20048;-62
2022/06/26 08:15:36;;;;;;;15.65;13.98;;;;;;;;;;5077186;28;20040;-63
2022/06/26 08:18:03;;;;;;;15.13;12.67;;;;;;;;;;5063820;28;20057;-62
2022/06/26 08:20:29;;;;;;;13.98;12.57;;;;;;;;;;5071425;28;20049;-63
2022/06/26 08:22:55;;;;;;;18.25;12.95;;;;;;;;;;5083678;28;20079;-63
2022/06/26 08:25:21;;;;;;;14.63;13.07;;;;;;;;;;5093939;28;20051;-62
2022/06/26 08:27:47;;;;;;;16.05;12.23;;;;;;;;;;5063896;28;20122;-64
2022/06/26 08:30:14;;;;;;;12.90;10.73;;;;;;;;;;5067928;28;20305;-64
2022/06/26 08:32:40;;;;;;;15.15;10.77;;;;;;;;;;5082207;28;20059;-64
2022/06/26 08:35:06;;;;;;;15.60;9.68;;;;;;;;;;5067953;28;20045;-64
2022/06/26 08:37:33;;;;;;;10.10;8.73;;;;;;;;;;5063782;28;20077;-64
2022/06/26 08:39:59;;;;;;;10.20;8.48;;;;;;;;;;5077957;28;20559;-64
2022/06/26 08:42:26;;;;;;;12.35;8.80;;;;;;;;;;5065713;28;20063;-64
2022/06/26 08:44:56;;;;;;;11.55;9.15;;;;;;;;;;5067507;28;20041;-64
2022/06/26 08:47:24;;;;;;;15.07;8.55;;;;;;;;;;5066404;28;20060;-64
2022/06/26 08:49:51;;;;;;;11.60;7.40;;;;;;;;;;5094035;28;20052;-64
2022/06/26 08:52:18;;;;;;;9.20;7.72;;;;;;;;;;5083835;28;20045;-64
2022/06/26 08:54:45;;;;;;;12.32;8.07;;;;;;;;;;5067346;28;20112;-63
2022/06/26 08:57:14;;;;;;;10.50;8.25;;;;;;;;;;5080997;28;20077;-64
2022/06/26 08:59:41;;;;;;;11.00;8.23;;;;;;;;;;5067269;28;20045;-64
2022/06/26 09:02:07;;;;;;;8.00;6.57;;;;;;;;;;5080383;28;20445;-64
2022/06/26 09:04:33;;;;;;;11.38;7.82;;;;;;;;;;5080934;28;20073;-64
2022/06/26 09:06:59;;;;;;;7.45;5.40;;;;;;;;;;5082251;28;20088;-63
2022/06/26 09:09:27;;;;;;;7.68;5.03;;;;;;;;;;5085124;28;20080;-63
2022/06/26 09:11:57;;;;;;;7.05;5.40;;;;;;;;;;5076029;28;20071;-61
2022/06/26 09:14:25;;;;;;;9.85;5.63;;;;;;;;;;5080721;28;20044;-64
2022/06/26 09:16:52;;;;;;;7.40;5.80;;;;;;;;;;5065971;28;20052;-62
2022/06/26 09:19:20;;;;;;;7.90;5.63;;;;;;;;;;5080697;28;20100;-64
2022/06/26 09:21:50;;;;;;;7.25;5.70;;;;;;;;;;5084539;28;20074;-61
2022/06/26 09:24:17;;;;;;;8.32;5.47;;;;;;;;;;5075979;28;20048;-63
2022/06/26 09:26:44;;;;;;;6.63;4.15;;;;;;;;;;5069098;28;20501;-63
2022/06/26 09:29:10;;;;;;;5.65;3.80;;;;;;;;;;5086608;28;20032;-63
2022/06/26 09:31:37;;;;;;;4.45;3.40;;;;;;;;;;5071002;28;20053;-63
2022/06/26 09:34:03;;;;;;;6.70;3.67;;;;;;;;;;5073144;28;20409;-64
2022/06/26 09:36:30;;;;;;;5.20;4.13;;;;;;;;;;5073111;28;20315;-63
2022/06/26 09:38:56;;;;;;;4.47;3.65;;;;;;;;;;5080516;28;20064;-63
2022/06/26 09:41:31;;;;;;;5.10;3.42;;;;;;;;;;5066427;28;20045;-63
2022/06/26 09:43:58;;;;;;;4.90;3.63;;;;;;;;;;5080377;28;20074;-63
2022/06/26 09:46:33;;;;;;;4.97;2.20;;;;;;;;;;5066343;28;20084;-62
2022/06/26 09:49:00;;;;;;;3.10;1.85;;;;;;;;;;5066075;28;20096;-63
2022/06/26 09:51:27;;;;;;;3.90;2.55;;;;;;;;;;5066173;28;20049;-62
2022/06/26 09:53:53;;;;;;;2.72;2.00;;;;;;;;;;5065055;28;20108;-63
2022/06/26 09:56:20;;;;;;;5.32;2.50;;;;;;;;;;5065855;28;20132;-63
2022/06/26 09:58:46;;;;;;;3.65;2.22;;;;;;;;;;5065763;28;20097;-63
2022/06/26 10:06:46;;;;;;;4.78;2.53;;;;;;;;;;5065691;28;20113;-62
2022/06/26 10:09:13;;;;;;;7.95;2.53;;;;;;;;;;5081202;28;20076;-62
2022/06/26 10:11:42;;;;;;;5.80;2.90;;;;;;;;;;5085875;28;20044;-62
2022/06/26 10:14:22;;;;;;;8.60;1.85;;;;;;;;;;5070479;28;20052;-63
2022/06/26 10:16:57;;;;;;;7.75;2.70;;;;;;;;;;5065062;28;20049;-63
2022/06/26 10:19:28;;;;;;;4.15;2.15;;;;;;;;;;5065311;28;20041;-63
2022/06/26 10:21:54;;;;;;;3.50;2.38;;;;;;;;;;5079570;28;20041;-63
2022/06/26 10:24:21;;;;;;;3.83;2.33;;;;;;;;;;5065575;28;20045;-63
2022/06/26 10:26:52;;;;;;;6.35;3.28;;;;;;;;;;5080882;28;20045;-62
2022/06/26 10:29:18;;;;;;;3.95;2.33;;;;;;;;;;5075554;28;20120;-62
2022/06/26 10:31:48;;;;;;;5.20;1.48;;;;;;;;;;5067221;28;20132;-63
2022/06/26 10:34:16;;;;;;;10.20;1.70;;;;;;;;;;5064725;28;20048;-62
2022/06/26 10:36:42;;;;;;;3.08;2.05;;;;;;;;;;5064741;28;20045;-62
2022/06/26 10:39:08;;;;;;;2.90;1.85;;;;;;;;;;5072013;28;20508;-64
2022/06/26 10:44:33;;;;;;;3.33;1.75;;;;;;;;;;5065175;28;20095;-64
2022/06/26 10:46:59;;;;;;;5.18;2.28;;;;;;;;;;5064331;28;20064;-64
2022/06/26 10:49:25;;;;;;;6.03;2.55;;;;;;;;;;5072554;28;20076;-63
2022/06/26 10:51:51;;;;;;;3.65;2.35;;;;;;;;;;5071326;28;20053;-63
2022/06/26 10:54:27;;;;;;;3.65;1.90;;;;;;;;;;5070394;28;20056;-63
2022/06/26 10:57:12;;;;;;;3.47;1.70;;;;;;;;;;5071541;28;20052;-63
2022/06/26 10:59:42;;;;;;;2.55;1.60;;;;;;;;;;5072455;28;20041;-63
2022/06/26 11:02:12;;;;;;;3.53;2.08;;;;;;;;;;5069978;28;20053;-64
2022/06/26 11:04:45;;;;;;;4.70;2.00;;;;;;;;;;5064424;28;20041;-63
2022/06/26 11:07:14;;;;;;;2.80;2.00;;;;;;;;;;5064544;28;20053;-63
2022/06/26 11:09:40;;;;;;;5.15;1.98;;;;;;;;;;5064688;28;20045;-63
2022/06/26 11:12:06;;;;;;;3.42;2.30;;;;;;;;;;5064503;28;20083;-63
2022/06/26 11:14:33;;;;;;;4.53;2.17;;;;;;;;;;5064517;28;20044;-63
2022/06/26 11:16:59;;;;;;;2.80;1.80;;;;;;;;;;5063826;28;20045;-63
2022/06/26 11:19:26;;;;;;;4.88;2.10;;;;;;;;;;5064356;28;20044;-63
2022/06/26 11:22:05;;;;;;;5.05;1.83;;;;;;;;;;5078355;28;20093;-63
2022/06/26 11:24:31;;;;;;;4.05;1.75;;;;;;;;;;5080079;28;20473;-63
2022/06/26 11:26:57;;;;;;;5.95;1.95;;;;;;;;;;5064341;28;20116;-64
2022/06/26 11:29:24;;;;;;;5.72;2.20;;;;;;;;;;5064434;28;20051;-64
2022/06/26 11:31:50;;;;;;;2.72;1.70;;;;;;;;;;5079497;28;20056;-64
2022/06/26 11:34:18;;;;;;;4.03;1.65;;;;;;;;;;5064384;28;20041;-64
2022/06/26 11:36:51;;;;;;;6.80;2.00;;;;;;;;;;5064053;28;20041;-64
2022/06/26 11:39:17;;;;;;;3.50;1.70;;;;;;;;;;5064468;28;20373;-64
2022/06/26 11:41:43;;;;;;;4.22;2.08;;;;;;;;;;5079527;28;20055;-64
2022/06/26 11:44:09;;;;;;;4.45;2.42;;;;;;;;;;5070845;28;20096;-64
2022/06/26 11:46:35;;;;;;;3.33;1.85;;;;;;;;;;5071709;28;20073;-64
2022/06/26 11:49:01;;;;;;;4.80;2.08;;;;;;;;;;5078037;28;20051;-64
2022/06/26 11:51:31;;;;;;;3.95;1.40;;;;;;;;;;5071353;28;20386;-64
2022/06/26 11:53:57;;;;;;;5.15;1.63;;;;;;;;;;5064077;28;20057;-64
2022/06/26 11:56:27;;;;;;;2.88;1.58;;;;;;;;;;5064120;28;20079;-64
2022/06/26 11:58:55;;;;;;;10.27;2.28;;;;;;;;;;5064005;28;20049;-64
2022/06/26 12:01:22;;;;;;;2.70;1.70;;;;;;;;;;5071914;28;20500;-64
2022/06/26 12:03:49;;;;;;;3.85;2.10;;;;;;;;;;5084931;28;20049;-63
2022/06/26 12:06:34;;;;;;;4.60;1.80;;;;;;;;;;5070334;28;20091;-64
2022/06/26 12:09:01;;;;;;;5.82;1.85;;;;;;;;;;5069841;28;20049;-64
2022/06/26 12:11:27;;;;;;;2.90;1.75;;;;;;;;;;5077022;28;20048;-63
2022/06/26 12:13:53;;;;;;;2.60;1.30;;;;;;;;;;5064208;28;20138;-64
2022/06/26 12:16:20;;;;;;;3.38;1.63;;;;;;;;;;5064238;28;20311;-64
2022/06/26 12:18:48;;;;;;;5.78;1.83;;;;;;;;;;5067347;28;20045;-64
2022/06/26 12:21:24;;;;;;;3.38;1.77;;;;;;;;;;5096835;28;20178;-64
2022/06/26 12:23:52;;;;;;;4.18;1.70;;;;;;;;;;5080877;28;20048;-63
2022/06/26 12:26:22;;;;;;;4.32;1.73;;;;;;;;;;5081329;28;20378;-64
2022/06/26 12:28:52;;;;;;;3.90;1.55;;;;;;;;;;5067596;28;20056;-64
2022/06/26 12:31:20;;;;;;;8.10;1.88;;;;;;;;;;5079852;28;20052;-63
2022/06/26 12:33:47;;;;;;;6.40;2.10;;;;;;;;;;5066684;28;20128;-64
2022/06/26 12:36:13;;;;;;;;;;;;;;;;;;5083290;28;20048;-64
2022/06/26 12:38:39;;;;;;;5.05;1.70;;;;;;;;;;5067444;28;19928;-64
2022/06/26 12:41:06;;;;;;;2.50;1.33;;;;;;;;;;5092000;28;20049;-64
2022/06/26 12:43:32;;;;;;;3.67;1.63;;;;;;;;;;5067181;28;20056;-64
2022/06/26 12:45:58;;;;;;;3.87;1.60;;;;;;;;;;5082986;28;20052;-65
2022/06/26 12:48:25;;;;;;;3.73;1.70;;;;;;;;;;5079935;28;20294;-64
2022/06/26 12:50:51;;;;;;;5.22;2.10;;;;;;;;;;5081987;28;20044;-64
2022/06/26 12:53:17;;;;;;;7.35;1.77;;;;;;;;;;5082772;28;20060;-64
2022/06/26 12:55:43;;;;;;;5.28;1.63;;;;;;;;;;5067114;28;20110;-64
2022/06/26 12:58:09;;;;;;;3.92;1.63;;;;;;;;;;5092031;28;20049;-64
2022/06/26 13:00:35;;;;;;;3.70;1.60;;;;;;;;;;5071621;28;20206;-63
2022/06/26 13:03:02;;;;;;;4.95;1.80;;;;;;;;;;5066524;28;20082;-63
2022/06/26 13:05:28;;;;;;;5.72;1.70;;;;;;;;;;5066881;28;20099;-65
2022/06/26 13:07:54;;;;;;;4.40;1.85;;;;;;;;;;5072494;28;20097;-64
2022/06/26 13:10:20;;;;;;;3.58;1.60;;;;;;;;;;5075293;28;20072;-64
2022/06/26 13:12:46;;;;;;;5.30;1.58;;;;;;;;;;5066726;28;20499;-64
2022/06/26 13:15:12;;;;;;;4.25;1.60;;;;;;;;;;5066961;28;20167;-64
2022/06/26 13:17:38;;;;;;;2.35;1.30;;;;;;;;;;5080166;28;20123;-64
2022/06/26 13:20:05;;;;;;;5.78;1.58;;;;;;;;;;5070608;28;20047;-64
2022/06/26 13:22:31;;;;;;;4.63;1.48;;;;;;;;;;5086736;28;20041;-64
2022/06/26 13:24:57;;;;;;;3.63;1.48;;;;;;;;;;5070724;28;20071;-64
2022/06/26 13:27:23;;;;;;;5.53;1.55;;;;;;;;;;5074262;28;20048;-64
2022/06/26 13:29:49;;;;;;;5.80;2.00;;;;;;;;;;5077213;28;20072;-64
2022/06/26 13:32:15;;;;;;;4.10;1.40;;;;;;;;;;5086122;28;20048;-64
2022/06/26 13:34:41;;;;;;;3.55;1.38;;;;;;;;;;5056188;28;20179;-64
2022/06/26 13:37:08;;;;;;;5.57;1.60;;;;;;;;;;5070596;28;20036;-64
2022/06/26 13:39:34;;;;;;;3.88;1.38;;;;;;;;;;5076095;28;20520;-64
2022/06/26 13:42:00;;;;;;;3.58;1.80;;;;;;;;;;5066214;28;20183;-63
2022/06/26 13:44:26;;;;;;;6.22;1.75;;;;;;;;;;5066373;28;20075;-64
2022/06/26 13:46:52;;;;;;;2.75;1.40;;;;;;;;;;5080848;28;20567;-64
2022/06/26 13:49:18;;;;;;;3.38;1.85;;;;;;;;;;5081633;28;20073;-64
2022/06/26 13:51:44;;;;;;;2.67;1.80;;;;;;;;;;5065955;28;20072;-64
2022/06/26 13:54:10;;;;;;;5.40;1.80;;;;;;;;;;5065530;28;20052;-64
2022/06/26 13:56:37;;;;;;;2.47;1.33;;;;;;;;;;5076527;28;20059;-64
2022/06/26 13:59:03;;;;;;;4.60;2.33;;;;;;;;;;5069125;28;20140;-64
2022/06/26 14:01:29;;;;;;;5.15;1.80;;;;;;;;;;5065856;28;20412;-64
2022/06/26 14:03:55;;;;;;;6.20;2.03;;;;;;;;;;5066435;28;20562;-64
2022/06/26 14:06:21;;;;;;;4.93;1.50;;;;;;;;;;5078853;28;20096;-65
2022/06/26 14:08:48;;;;;;;4.32;1.63;;;;;;;;;;5065619;28;20298;-64
2022/06/26 14:11:14;;;;;;;6.67;2.27;;;;;;;;;;5079894;28;20073;-64
2022/06/26 14:13:40;;;;;;;5.93;2.20;;;;;;;;;;5081177;28;20319;-64
2022/06/26 14:16:06;;;;;;;6.25;2.63;;;;;;;;;;5065456;28;20049;-64
2022/06/26 14:18:32;;;;;;;3.78;1.90;;;;;;;;;;5089702;28;20056;-65
2022/06/26 14:20:58;;;;;;;5.47;2.22;;;;;;;;;;5074267;28;20119;-64
2022/06/26 14:26:09;;;;;;;7.53;2.38;;;;;;;;;;5065619;28;20171;-64
2022/06/26 14:28:36;;;;;;;6.22;2.33;;;;;;;;;;5079448;28;20053;-64
2022/06/26 14:31:04;;;;;;;4.10;2.15;;;;;;;;;;5065452;28;20101;-64
2022/06/26 14:33:30;;;;;;;5.90;2.08;;;;;;;;;;5064534;28;20068;-64
2022/06/26 14:35:56;;;;;;;3.40;2.03;;;;;;;;;;5065290;28;20045;-64
2022/06/26 14:38:22;;;;;;;4.28;2.03;;;;;;;;;;5081092;28;20120;-64
2022/06/26 14:40:49;;;;;;;5.78;2.17;;;;;;;;;;5078431;28;20080;-64
2022/06/26 14:43:15;;;;;;;7.90;2.55;;;;;;;;;;5065012;28;20072;-64
2022/06/26 14:45:42;;;;;;;4.37;2.03;;;;;;;;;;5080632;28;20523;-64
2022/06/26 14:48:08;;;;;;;6.15;2.10;;;;;;;;;;5064574;28;20045;-64